Time;durP1;ratioP1;P1;durP2;ratioP2;P2;SDS_P1;SDS_P2;PMS_P1;PMS_P2;Temp;Humidity;BMP_temperature;BMP_pressure;BME280_temperature;BME280_humidity;BME280_pressure;Samples;Min_cycle;Max_cycle;Signal;HPM_P1;HPM_P2
2020/12/23 00:00:38;;;;;;;2.90;2.40;;;;;;;13.19;82.05;98902.72;5112754;28;20043;-64
2020/12/23 00:03:06;;;;;;;2.25;2.05;;;;;;;13.16;82.21;98903.13;5112649;28;20500;-64
2020/12/23 00:05:33;;;;;;;2.75;2.50;;;;;;;13.12;82.57;98897.41;5112392;28;20135;-64
2020/12/23 00:08:00;;;;;;;6.03;2.60;;;;;;;13.13;82.52;98888.41;5112711;28;20044;-64
2020/12/23 00:10:27;;;;;;;3.17;2.25;;;;;;;13.14;82.55;98884.72;5112635;28;20442;-64
2020/12/23 00:12:54;;;;;;;2.60;2.30;;;;;;;13.11;82.18;98887.81;5113050;28;20359;-64
2020/12/23 00:15:21;;;;;;;3.08;2.78;;;;;;;13.13;82.63;98886.56;5114205;28;20047;-64
2020/12/23 00:17:47;;;;;;;4.32;2.75;;;;;;;13.11;82.18;98890.47;5113339;28;20039;-65
2020/12/23 00:20:14;;;;;;;3.22;2.30;;;;;;;13.10;82.19;98875.53;5112614;28;20126;-64
2020/12/23 00:22:41;;;;;;;2.40;2.08;;;;;;;13.13;81.95;98886.56;5112375;28;20046;-64
2020/12/23 00:25:08;;;;;;;2.33;1.83;;;;;;;13.14;82.13;98879.41;5112024;28;20505;-64
2020/12/23 00:27:35;;;;;;;4.50;2.35;;;;;;;13.18;82.01;98874.50;5112362;28;20043;-64
2020/12/23 00:30:02;;;;;;;2.60;2.20;;;;;;;13.20;81.47;98881.25;5112295;28;20032;-64
2020/12/23 00:32:29;;;;;;;4.57;2.30;;;;;;;13.19;81.48;98889.44;5112392;28;20039;-64
2020/12/23 00:34:56;;;;;;;3.50;1.92;;;;;;;13.16;81.47;98888.00;5093643;28;20417;-64
2020/12/23 00:37:23;;;;;;;2.15;1.70;;;;;;;13.18;81.43;98888.59;5112551;28;20394;-64
2020/12/23 00:39:50;;;;;;;4.88;2.28;;;;;;;13.16;81.79;98885.34;5111998;28;20397;-64
2020/12/23 00:42:21;;;;;;;2.13;1.92;;;;;;;13.16;81.88;98888.00;5111965;28;20039;-62
2020/12/23 00:44:48;;;;;;;2.45;2.22;;;;;;;13.15;82.10;98878.41;5111508;28;20126;-62
2020/12/23 00:47:15;;;;;;;3.25;2.00;;;;;;;13.18;81.78;98877.16;5112186;28;20040;-65
2020/12/23 00:49:41;;;;;;;3.90;2.47;;;;;;;13.20;81.96;98877.78;5112240;28;20123;-65
2020/12/23 00:52:08;;;;;;;2.10;1.90;;;;;;;13.20;82.16;98880.44;5112044;28;20051;-65
2020/12/23 00:54:35;;;;;;;2.30;1.92;;;;;;;13.19;82.18;98882.28;5093364;28;20150;-64
2020/12/23 00:57:03;;;;;;;2.15;1.92;;;;;;;13.23;81.87;98872.91;5093856;28;20066;-65
2020/12/23 00:59:30;;;;;;;3.75;1.90;;;;;;;13.21;81.65;98874.09;5093994;28;20055;-65
2020/12/23 01:01:58;;;;;;;2.28;1.83;;;;;;;13.19;81.75;98874.31;5093970;28;20572;-65
2020/12/23 01:04:25;;;;;;;1.70;1.60;;;;;;;13.17;82.29;98881.66;5111870;28;20044;-65
2020/12/23 01:06:52;;;;;;;2.33;1.70;;;;;;;13.13;82.25;98883.09;5112419;28;20047;-65
2020/12/23 01:09:18;;;;;;;2.53;1.75;;;;;;;13.16;82.06;98887.19;5112233;28;20097;-65
2020/12/23 01:11:45;;;;;;;2.03;1.83;;;;;;;13.19;82.17;98892.09;5093958;28;20062;-65
2020/12/23 01:14:12;;;;;;;2.10;1.92;;;;;;;13.18;82.33;98882.47;5111988;28;20067;-63
2020/12/23 01:16:40;;;;;;;1.90;1.70;;;;;;;13.21;82.19;98885.53;5111898;28;20070;-64
2020/12/23 01:19:06;;;;;;;2.15;1.88;;;;;;;13.16;82.15;98885.34;5112071;28;20062;-64
2020/12/23 01:21:33;;;;;;;2.42;2.22;;;;;;;13.19;81.80;98890.25;5093738;28;20047;-64
2020/12/23 01:24:00;;;;;;;2.05;1.85;;;;;;;13.17;82.40;98900.25;5111502;28;20044;-64
2020/12/23 01:26:26;;;;;;;3.67;1.90;;;;;;;13.17;82.40;98896.78;5111902;28;20048;-64
2020/12/23 01:28:53;;;;;;;2.75;2.10;;;;;;;13.18;82.16;98893.09;5113841;28;20043;-64
2020/12/23 01:31:19;;;;;;;2.92;2.00;;;;;;;13.22;82.09;98896.97;5115924;28;20039;-64
2020/12/23 01:34:03;;;;;;;1.80;1.70;;;;;;;13.24;81.80;98894.97;5115222;28;20111;-64
2020/12/23 01:36:29;;;;;;;1.83;1.73;;;;;;;13.21;81.72;98898.81;5115487;28;20043;-64
2020/12/23 01:38:56;;;;;;;2.03;1.83;;;;;;;13.23;82.08;98909.28;5115476;28;20039;-64
2020/12/23 01:41:23;;;;;;;2.88;1.67;;;;;;;13.23;81.79;98904.78;5115546;28;20039;-64
2020/12/23 01:43:53;;;;;;;1.45;1.35;;;;;;;13.21;82.07;98901.47;5114994;28;20040;-64
2020/12/23 01:46:29;;;;;;;2.55;1.80;;;;;;;13.25;81.85;98910.69;5115285;28;20039;-64
2020/12/23 01:48:57;;;;;;;4.07;1.90;;;;;;;13.26;81.73;98903.53;5115427;28;20044;-64
2020/12/23 01:51:25;;;;;;;1.70;1.50;;;;;;;13.26;82.19;98896.38;5115333;28;20055;-64
2020/12/23 01:53:54;;;;;;;2.20;1.92;;;;;;;13.28;82.17;98904.16;5114854;28;20374;-64
2020/12/23 01:56:21;;;;;;;1.40;1.30;;;;;;;13.30;81.72;98907.41;5115176;28;20047;-64
2020/12/23 01:58:48;;;;;;;2.95;1.40;;;;;;;13.33;81.77;98901.69;5115147;28;20493;-64
2020/12/23 02:01:18;;;;;;;1.63;1.40;;;;;;;13.25;81.77;98905.38;5096749;28;20147;-64
2020/12/23 02:03:45;;;;;;;1.58;1.40;;;;;;;13.26;81.70;98906.19;5114740;28;20047;-64
2020/12/23 02:06:12;;;;;;;1.30;1.20;;;;;;;13.23;82.13;98907.44;5114858;28;20051;-64
2020/12/23 02:08:41;;;;;;;2.30;1.38;;;;;;;13.24;82.22;98906.41;5096537;28;20039;-64
2020/12/23 02:11:10;;;;;;;1.63;1.50;;;;;;;13.21;82.20;98895.34;5114955;28;20104;-64
2020/12/23 02:13:38;;;;;;;1.88;1.60;;;;;;;13.21;82.07;98898.81;5114476;28;20058;-64
2020/12/23 02:16:05;;;;;;;1.30;1.20;;;;;;;13.21;82.07;98893.50;5114711;28;20043;-64
2020/12/23 02:18:33;;;;;;;1.30;1.20;;;;;;;13.22;82.17;98884.50;5114713;28;20055;-64
2020/12/23 02:21:00;;;;;;;4.10;1.27;;;;;;;13.18;82.46;98888.59;5114705;28;20048;-64
2020/12/23 02:23:28;;;;;;;1.75;1.50;;;;;;;13.20;82.15;98878.59;5114357;28;20036;-64
2020/12/23 02:25:55;;;;;;;1.63;1.45;;;;;;;13.23;82.10;98886.19;5114540;28;20043;-64
2020/12/23 02:28:22;;;;;;;1.45;1.30;;;;;;;13.23;82.44;98890.69;5114566;28;20047;-64
2020/12/23 02:30:49;;;;;;;2.53;1.27;;;;;;;13.28;82.14;98872.28;5114506;28;20056;-64
2020/12/23 02:33:16;;;;;;;2.65;1.10;;;;;;;13.34;82.10;98874.91;5114370;28;20493;-64
2020/12/23 02:35:43;;;;;;;2.22;1.30;;;;;;;13.34;82.21;98874.09;5114250;28;20055;-64
2020/12/23 02:38:10;;;;;;;1.40;1.30;;;;;;;13.35;82.14;98857.97;5114389;28;20040;-64
2020/12/23 02:40:37;;;;;;;1.27;1.17;;;;;;;13.32;82.20;98869.00;5113717;28;20520;-64
2020/12/23 02:43:04;;;;;;;1.90;1.35;;;;;;;13.35;82.20;98867.78;5114159;28;20047;-64
2020/12/23 02:45:31;;;;;;;1.40;1.30;;;;;;;13.36;81.88;98858.78;5113844;28;20485;-64
2020/12/23 02:47:58;;;;;;;1.58;1.40;;;;;;;13.35;81.74;98859.81;5114151;28;20040;-64
2020/12/23 02:50:25;;;;;;;2.53;1.50;;;;;;;13.36;82.11;98861.44;5114172;28;20039;-64
2020/12/23 02:52:51;;;;;;;1.45;1.35;;;;;;;13.36;81.62;98854.28;5114057;28;20042;-64
2020/12/23 02:55:18;;;;;;;2.35;1.55;;;;;;;13.34;81.67;98848.34;5113642;28;20063;-64
2020/12/23 02:57:46;;;;;;;1.98;1.67;;;;;;;13.36;81.94;98841.00;5114110;28;20043;-64
2020/12/23 03:00:13;;;;;;;1.30;1.17;;;;;;;13.35;81.80;98839.38;5095756;28;20047;-64
2020/12/23 03:02:40;;;;;;;1.98;1.50;;;;;;;13.34;81.88;98853.66;5113864;28;20071;-64
2020/12/23 03:05:06;;;;;;;2.80;1.30;;;;;;;13.35;81.60;98847.34;5113677;28;20044;-64
2020/12/23 03:07:33;;;;;;;1.85;1.40;;;;;;;13.34;81.45;98848.34;5113930;28;20051;-64
2020/12/23 03:10:01;;;;;;;2.25;1.35;;;;;;;13.31;81.81;98848.81;5113938;28;20054;-64
2020/12/23 03:12:28;;;;;;;2.70;1.27;;;;;;;13.32;81.77;98844.31;5113766;28;20489;-64
2020/12/23 03:14:56;;;;;;;2.97;1.48;;;;;;;13.35;82.03;98855.31;5113378;28;20043;-64
2020/12/23 03:17:22;;;;;;;1.35;1.25;;;;;;;13.34;81.97;98845.69;5113727;28;20042;-64
2020/12/23 03:19:49;;;;;;;1.42;1.33;;;;;;;13.33;81.91;98836.13;5113699;28;20051;-64
2020/12/23 03:22:15;;;;;;;1.38;1.27;;;;;;;13.34;81.78;98821.00;5113581;28;20505;-64
2020/12/23 03:24:42;;;;;;;2.67;1.30;;;;;;;13.37;81.84;98824.06;5113173;28;20058;-64
2020/12/23 03:27:09;;;;;;;1.33;1.17;;;;;;;13.34;81.59;98840.41;5113520;28;20043;-65
2020/12/23 03:29:36;;;;;;;1.77;1.40;;;;;;;13.36;81.86;98825.09;5113513;28;20043;-64
2020/12/23 03:32:04;;;;;;;1.38;1.17;;;;;;;13.35;81.66;98828.78;5095120;28;20043;-64
2020/12/23 03:34:30;;;;;;;2.05;1.40;;;;;;;13.33;81.74;98814.88;5112970;28;20046;-64
2020/12/23 03:36:57;;;;;;;1.67;1.00;;;;;;;13.33;81.74;98830.81;5113080;28;20051;-64
2020/12/23 03:39:24;;;;;;;1.60;1.30;;;;;;;13.33;82.19;98820.19;5113248;28;20054;-64
2020/12/23 03:41:50;;;;;;;1.73;1.05;;;;;;;13.31;81.97;98805.50;5113210;28;20050;-64
2020/12/23 03:44:17;;;;;;;2.33;1.10;;;;;;;13.31;82.21;98785.09;5112705;28;20059;-64
2020/12/23 03:46:44;;;;;;;0.90;0.90;;;;;;;13.35;81.83;98791.59;5113169;28;20393;-64
2020/12/23 03:49:11;;;;;;;1.67;1.10;;;;;;;13.34;82.01;98802.41;5113074;28;20489;-64
2020/12/23 03:51:38;;;;;;;1.33;1.10;;;;;;;13.32;81.85;98807.94;5112541;28;20048;-64
2020/12/23 03:54:05;;;;;;;0.90;0.82;;;;;;;13.31;82.31;98800.19;5112529;28;20063;-64
2020/12/23 03:56:31;;;;;;;0.98;0.90;;;;;;;13.28;82.08;98798.78;5112938;28;20054;-64
2020/12/23 03:58:58;;;;;;;0.95;0.90;;;;;;;13.28;82.26;98788.16;5112963;28;20051;-64
2020/12/23 04:01:25;;;;;;;0.68;0.68;;;;;;;13.28;82.06;98779.38;5112879;28;20039;-64
2020/12/23 04:03:51;;;;;;;1.30;1.00;;;;;;;13.23;82.28;98772.03;5112484;28;20046;-64
2020/12/23 04:06:19;;;;;;;0.77;0.73;;;;;;;13.25;82.43;98779.78;5112576;28;20050;-64
2020/12/23 04:08:45;;;;;;;0.88;0.88;;;;;;;13.22;82.24;98782.81;5112747;28;20036;-64
2020/12/23 04:11:12;;;;;;;0.95;0.75;;;;;;;13.21;82.01;98783.84;5112779;28;20058;-64
2020/12/23 04:13:39;;;;;;;3.08;1.00;;;;;;;13.22;82.58;98782.81;5112216;28;20047;-64
2020/12/23 04:16:06;;;;;;;0.88;0.80;;;;;;;13.24;82.20;98776.31;5112613;28;20039;-64
2020/12/23 04:18:33;;;;;;;0.93;0.73;;;;;;;13.24;82.07;98786.13;5112567;28;20067;-64
2020/12/23 04:21:00;;;;;;;0.85;0.70;;;;;;;13.21;82.43;98794.47;5094220;28;20051;-64
2020/12/23 04:23:27;;;;;;;2.08;0.63;;;;;;;13.20;82.49;98782.22;5112200;28;20405;-64
2020/12/23 04:25:54;;;;;;;0.52;0.50;;;;;;;13.19;82.51;98780.59;5112414;28;20043;-64
2020/12/23 04:28:20;;;;;;;1.17;0.60;;;;;;;13.19;82.18;98797.34;5112485;28;20041;-64
2020/12/23 04:30:47;;;;;;;0.65;0.57;;;;;;;13.19;82.55;98783.25;5094198;28;20047;-64
2020/12/23 04:33:14;;;;;;;2.35;0.68;;;;;;;13.18;82.54;98786.91;5094223;28;20047;-64
2020/12/23 04:35:57;;;;;;;0.63;0.60;;;;;;;13.17;82.39;98778.16;5112202;28;20043;-64
2020/12/23 04:38:24;;;;;;;0.63;0.50;;;;;;;13.18;82.35;98789.56;5112446;28;20043;-64
2020/12/23 04:40:52;;;;;;;3.65;0.60;;;;;;;13.22;82.15;98785.47;5112314;28;20047;-64
2020/12/23 04:43:20;;;;;;;0.50;0.50;;;;;;;13.17;82.37;98786.09;5112024;28;20050;-64
2020/12/23 04:45:47;;;;;;;0.60;0.60;;;;;;;13.12;82.58;98770.81;5112204;28;20417;-64
2020/12/23 04:48:19;;;;;;;0.80;0.47;;;;;;;13.14;82.76;98778.56;5112420;28;20048;-64
2020/12/23 04:50:52;;;;;;;0.50;0.50;;;;;;;13.16;82.53;98762.44;5094459;28;20055;-64
2020/12/23 04:53:19;;;;;;;1.10;0.93;;;;;;;13.22;82.73;98745.66;5112386;28;20044;-64
2020/12/23 04:55:47;;;;;;;10.88;7.03;;;;;;;13.26;82.55;98739.75;5112246;28;20039;-64
2020/12/23 04:58:14;;;;;;;4.82;2.80;;;;;;;13.28;82.59;98736.91;5112359;28;20116;-64
2020/12/23 05:00:41;;;;;;;0.98;0.90;;;;;;;13.32;82.82;98738.09;5112430;28;20047;-64
2020/12/23 05:03:08;;;;;;;0.70;0.70;;;;;;;13.33;82.08;98737.88;5112380;28;20063;-63
2020/12/23 05:05:35;;;;;;;0.68;0.60;;;;;;;13.33;82.41;98747.69;5115869;28;20122;-63
2020/12/23 05:08:03;;;;;;;2.05;0.80;;;;;;;13.39;82.12;98733.59;5097888;28;20096;-64
2020/12/23 05:10:30;;;;;;;2.25;1.60;;;;;;;13.40;82.00;98747.66;5116219;28;20050;-64
2020/12/23 05:12:57;;;;;;;0.60;0.60;;;;;;;13.37;82.01;98759.50;5115969;28;20051;-64
2020/12/23 05:15:24;;;;;;;0.68;0.60;;;;;;;13.36;82.39;98748.09;5115678;28;20043;-63
2020/12/23 05:17:51;;;;;;;0.70;0.60;;;;;;;13.37;82.28;98748.91;5116022;28;20044;-64
2020/12/23 05:20:19;;;;;;;0.88;0.85;;;;;;;13.37;82.37;98741.75;5115969;28;20048;-64
2020/12/23 05:22:47;;;;;;;1.05;0.82;;;;;;;13.34;82.13;98749.31;5115879;28;20039;-64
2020/12/23 05:25:17;;;;;;;0.82;0.60;;;;;;;13.37;82.19;98757.69;5115663;28;20443;-64
2020/12/23 05:27:48;;;;;;;3.00;2.20;;;;;;;13.41;82.26;98751.94;5115866;28;20471;-64
2020/12/23 05:30:15;;;;;;;3.10;1.90;;;;;;;13.37;82.37;98752.38;5115823;28;20117;-64
2020/12/23 05:32:45;;;;;;;1.35;1.10;;;;;;;13.40;82.19;98747.66;5115761;28;20039;-64
2020/12/23 05:35:14;;;;;;;0.80;0.75;;;;;;;13.45;82.46;98745.19;5115339;28;20048;-64
2020/12/23 05:37:41;;;;;;;1.50;1.00;;;;;;;13.48;82.41;98742.13;5115564;28;20066;-64
2020/12/23 05:40:08;;;;;;;0.93;0.68;;;;;;;13.46;82.19;98738.84;5115575;28;20043;-64
2020/12/23 05:42:39;;;;;;;1.20;0.80;;;;;;;13.45;82.00;98740.69;5097319;28;20044;-64
2020/12/23 05:45:07;;;;;;;0.82;0.70;;;;;;;13.43;82.27;98740.09;5115250;28;20035;-64
2020/12/23 05:47:36;;;;;;;0.65;0.65;;;;;;;13.40;82.46;98739.72;5115483;28;20040;-64
2020/12/23 05:50:09;;;;;;;0.90;0.88;;;;;;;13.43;82.18;98731.28;5115462;28;20046;-64
2020/12/23 05:52:36;;;;;;;1.40;1.00;;;;;;;13.41;82.10;98738.66;5115331;28;20048;-64
2020/12/23 05:55:14;;;;;;;1.17;1.08;;;;;;;13.42;82.37;98733.13;5115070;28;20509;-64
2020/12/23 05:57:41;;;;;;;1.48;1.30;;;;;;;13.43;82.02;98728.63;5096888;28;20047;-64
2020/12/23 06:00:07;;;;;;;1.90;1.58;;;;;;;13.42;82.37;98722.50;5097034;28;20050;-64
2020/12/23 06:03:00;;;;;;;2.17;1.80;;;;;;;13.39;81.91;98717.66;5115123;28;20066;-64
2020/12/23 06:05:29;;;;;;;5.65;4.13;;;;;;;13.33;82.10;98724.59;5114623;28;20043;-64
2020/12/23 06:07:58;;;;;;;1.90;1.65;;;;;;;13.29;82.09;98718.09;5115062;28;20040;-64
2020/12/23 06:10:25;;;;;;;1.92;1.20;;;;;;;13.28;81.70;98721.78;5096617;28;20413;-63
2020/12/23 06:12:56;;;;;;;3.50;1.25;;;;;;;13.24;81.54;98714.47;5114849;28;20055;-63
2020/12/23 06:15:30;;;;;;;3.10;1.40;;;;;;;13.26;81.73;98723.81;5113525;28;20039;-64
2020/12/23 06:18:00;;;;;;;1.42;1.20;;;;;;;13.23;81.83;98721.59;5114901;28;20036;-63
2020/12/23 06:20:31;;;;;;;3.40;1.25;;;;;;;13.21;81.65;98706.88;5114819;28;20043;-63
2020/12/23 06:22:58;;;;;;;1.15;1.05;;;;;;;13.21;81.45;98705.03;5114711;28;20040;-63
2020/12/23 06:25:31;;;;;;;2.05;1.50;;;;;;;13.14;81.36;98697.13;5114344;28;20042;-63
2020/12/23 06:28:00;;;;;;;2.08;1.85;;;;;;;13.11;81.63;98702.84;5114658;28;20059;-63
2020/12/23 06:30:28;;;;;;;2.70;1.92;;;;;;;13.13;81.39;98705.28;5114609;28;20043;-63
2020/12/23 06:33:00;;;;;;;2.88;1.50;;;;;;;13.10;81.50;98708.34;5114516;28;20043;-63
2020/12/23 06:35:27;;;;;;;3.35;2.40;;;;;;;13.11;81.46;98704.69;5114487;28;20048;-63
2020/12/23 06:37:54;;;;;;;2.55;2.35;;;;;;;13.02;81.50;98698.81;5114492;28;20039;-63
2020/12/23 06:40:21;;;;;;;2.88;2.30;;;;;;;12.93;81.49;98694.75;5114324;28;20058;-63
2020/12/23 06:42:48;;;;;;;2.85;2.50;;;;;;;12.88;81.49;98689.25;5114440;28;20052;-63
2020/12/23 06:45:15;;;;;;;3.30;2.38;;;;;;;12.80;81.99;98695.59;5113872;28;20042;-63
2020/12/23 06:47:43;;;;;;;3.65;2.92;;;;;;;12.77;81.83;98695.22;5114213;28;20439;-63
2020/12/23 06:50:15;;;;;;;3.75;3.38;;;;;;;12.80;82.07;98690.31;5114204;28;20065;-63
2020/12/23 06:52:45;;;;;;;4.32;3.55;;;;;;;12.81;81.87;98691.91;5095741;28;20039;-63
2020/12/23 06:55:13;;;;;;;5.63;4.65;;;;;;;12.82;82.17;98688.28;5113722;28;20047;-63
2020/12/23 06:57:50;;;;;;;6.22;3.35;;;;;;;12.83;81.49;98689.09;5114022;28;20050;-63
2020/12/23 07:00:36;;;;;;;10.05;3.45;;;;;;;12.79;81.55;98690.53;5114063;28;20044;-63
2020/12/23 07:03:05;;;;;;;3.85;3.42;;;;;;;12.80;81.66;98705.41;5095526;28;20050;-63
2020/12/23 07:05:38;;;;;;;5.18;3.70;;;;;;;12.79;81.53;98694.00;5113413;28;20062;-63
2020/12/23 07:08:06;;;;;;;5.07;3.15;;;;;;;12.80;81.60;98692.97;5114002;28;20118;-63
2020/12/23 07:10:35;;;;;;;3.97;3.13;;;;;;;12.78;81.28;98695.03;5113777;28;20051;-63
2020/12/23 07:13:04;;;;;;;4.85;3.50;;;;;;;12.75;81.45;98695.44;5113658;28;20039;-63
2020/12/23 07:15:32;;;;;;;6.07;3.45;;;;;;;12.72;81.43;98690.53;5113364;28;20680;-63
2020/12/23 07:18:02;;;;;;;4.00;3.45;;;;;;;12.70;81.44;98692.59;5113513;28;20043;-63
2020/12/23 07:20:32;;;;;;;4.20;3.55;;;;;;;12.69;81.00;98695.44;5113617;28;20058;-63
2020/12/23 07:23:04;;;;;;;6.57;3.97;;;;;;;12.68;81.17;98694.63;5095350;28;20053;-63
2020/12/23 07:25:37;;;;;;;4.22;3.72;;;;;;;12.67;80.78;98689.53;5113221;28;20047;-63
2020/12/23 07:28:06;;;;;;;6.82;3.72;;;;;;;12.63;80.96;98697.91;5113275;28;20043;-63
2020/12/23 07:30:37;;;;;;;5.00;3.35;;;;;;;12.62;80.42;98687.53;5113316;28;20122;-63
2020/12/23 07:33:10;;;;;;;4.65;3.10;;;;;;;12.58;80.72;98681.81;5113255;28;20047;-63
2020/12/23 07:35:38;;;;;;;5.95;3.30;;;;;;;12.64;80.56;98694.22;5113089;28;20059;-63
2020/12/23 07:38:07;;;;;;;4.45;3.70;;;;;;;12.67;80.68;98698.31;5113231;28;20512;-63
2020/12/23 07:40:36;;;;;;;4.25;3.45;;;;;;;12.65;80.26;98695.03;5113259;28;20051;-63
2020/12/23 07:43:03;;;;;;;4.85;3.03;;;;;;;12.61;80.07;98697.31;5113136;28;20043;-63
2020/12/23 07:45:31;;;;;;;5.65;3.53;;;;;;;12.59;80.10;98694.03;5112798;28;20509;-64
2020/12/23 07:48:01;;;;;;;4.60;3.50;;;;;;;12.59;80.42;98695.88;5113040;28;20051;-64
2020/12/23 07:50:30;;;;;;;4.57;3.20;;;;;;;12.56;80.26;98704.25;5113155;28;20401;-64
2020/12/23 07:52:57;;;;;;;3.28;2.95;;;;;;;12.53;80.06;98699.34;5113016;28;20045;-64
2020/12/23 07:55:25;;;;;;;6.25;2.97;;;;;;;12.56;80.26;98697.09;5112612;28;20040;-64
2020/12/23 07:57:53;;;;;;;4.70;3.28;;;;;;;12.56;79.99;98693.63;5094613;28;20044;-64
2020/12/23 08:00:21;;;;;;;4.95;3.58;;;;;;;12.54;80.00;98699.16;5112733;28;20055;-64
2020/12/23 08:02:52;;;;;;;5.28;3.90;;;;;;;12.53;80.22;98694.88;5112789;28;20054;-63
2020/12/23 08:05:19;;;;;;;4.47;3.38;;;;;;;12.52;79.99;98695.88;5112420;28;20040;-63
2020/12/23 08:07:46;;;;;;;4.93;3.40;;;;;;;12.55;79.83;98697.31;5112741;28;20378;-63
2020/12/23 08:10:14;;;;;;;4.80;3.40;;;;;;;12.51;79.83;98693.47;5112711;28;20048;-63
2020/12/23 08:12:43;;;;;;;4.95;3.35;;;;;;;12.49;80.00;98698.13;5112497;28;20047;-63
2020/12/23 08:15:12;;;;;;;7.15;3.80;;;;;;;12.38;80.46;98705.72;5112225;28;20378;-63
2020/12/23 08:17:39;;;;;;;6.93;3.85;;;;;;;12.36;80.21;98701.63;5112618;28;20042;-63
2020/12/23 08:20:08;;;;;;;3.40;2.90;;;;;;;12.37;80.10;98703.28;5112514;28;20043;-63
2020/12/23 08:22:36;;;;;;;5.10;3.35;;;;;;;12.39;80.54;98706.53;5112649;28;20450;-63
2020/12/23 08:25:09;;;;;;;4.20;3.08;;;;;;;12.44;80.16;98704.06;5112282;28;20043;-63
2020/12/23 08:27:36;;;;;;;5.38;3.40;;;;;;;12.46;80.30;98701.22;5112573;28;20054;-63
2020/12/23 08:30:06;;;;;;;5.18;3.35;;;;;;;12.48;80.17;98705.28;5112423;28;20040;-63
2020/12/23 08:32:44;;;;;;;5.00;2.92;;;;;;;12.43;79.94;98713.03;5112435;28;20049;-63
2020/12/23 08:35:15;;;;;;;3.65;2.95;;;;;;;12.39;79.94;98704.69;5112226;28;20054;-62
2020/12/23 08:37:42;;;;;;;5.40;3.17;;;;;;;12.38;79.87;98711.00;5112291;28;20198;-62
2020/12/23 08:40:09;;;;;;;4.80;2.55;;;;;;;12.36;79.94;98710.38;5112192;28;20054;-63
2020/12/23 08:42:35;;;;;;;3.70;3.00;;;;;;;12.36;79.86;98699.78;5112407;28;20043;-61
2020/12/23 08:45:05;;;;;;;3.97;3.17;;;;;;;12.43;80.29;98705.09;5111782;28;20055;-62
2020/12/23 08:47:33;;;;;;;3.97;3.15;;;;;;;12.46;80.18;98694.06;5112321;28;20036;-61
2020/12/23 08:50:01;;;;;;;4.45;2.90;;;;;;;12.45;80.12;98697.75;5112327;28;20069;-62
2020/12/23 08:52:28;;;;;;;4.35;3.28;;;;;;;12.49;79.97;98698.13;5112086;28;20405;-62
2020/12/23 08:54:55;;;;;;;5.10;2.80;;;;;;;12.52;79.84;98697.72;5111834;28;20054;-62
2020/12/23 08:57:27;;;;;;;3.70;2.55;;;;;;;12.55;79.48;98692.00;5112163;28;20039;-62
2020/12/23 08:59:55;;;;;;;4.78;2.80;;;;;;;12.54;79.43;98696.50;5093697;28;20051;-62
2020/12/23 09:02:22;;;;;;;4.35;2.95;;;;;;;12.54;79.35;98688.56;5112547;28;20062;-62
2020/12/23 09:04:49;;;;;;;5.30;3.03;;;;;;;12.57;79.59;98692.59;5111691;28;20043;-62
2020/12/23 09:07:21;;;;;;;4.00;3.05;;;;;;;12.57;79.42;98682.00;5112060;28;20047;-62
2020/12/23 09:09:49;;;;;;;4.78;2.92;;;;;;;12.56;79.28;98691.78;5112049;28;20063;-62
2020/12/23 09:12:21;;;;;;;4.00;2.88;;;;;;;12.56;79.39;98685.69;5111879;28;20401;-62
2020/12/23 09:14:47;;;;;;;3.67;2.95;;;;;;;12.55;79.66;98692.00;5093439;28;20044;-62
2020/12/23 09:17:22;;;;;;;5.88;3.00;;;;;;;12.52;79.70;98689.78;5112173;28;20066;-62
2020/12/23 09:19:55;;;;;;;3.42;2.80;;;;;;;12.61;79.66;98685.88;5112229;28;20451;-62
2020/12/23 09:22:27;;;;;;;3.55;2.90;;;;;;;12.64;79.18;98678.31;5112077;28;20047;-62
2020/12/23 09:25:22;;;;;;;3.40;2.40;;;;;;;12.66;79.09;98677.31;5111594;28;20047;-62
2020/12/23 09:27:50;;;;;;;4.43;2.58;;;;;;;12.64;79.29;98678.31;5112096;28;20036;-61
2020/12/23 09:30:30;;;;;;;4.40;2.90;;;;;;;12.69;79.05;98677.69;5112358;28;20050;-62
2020/12/23 09:32:57;;;;;;;3.78;2.88;;;;;;;12.71;78.90;98678.31;5112069;28;20446;-62
2020/12/23 09:35:26;;;;;;;4.63;2.88;;;;;;;12.63;79.36;98674.03;5111786;28;20039;-62
2020/12/23 09:38:05;;;;;;;4.40;2.85;;;;;;;12.63;79.39;98679.34;5111914;28;20032;-62
2020/12/23 09:40:33;;;;;;;4.20;3.47;;;;;;;12.60;79.04;98678.94;5112007;28;20071;-62
2020/12/23 09:42:59;;;;;;;6.40;3.10;;;;;;;12.52;79.22;98677.31;5111655;28;20043;-62
2020/12/23 09:45:26;;;;;;;6.38;2.78;;;;;;;12.52;79.07;98668.56;5111425;28;20031;-62
2020/12/23 09:47:53;;;;;;;5.10;3.10;;;;;;;12.57;79.32;98666.09;5111745;28;20051;-61
2020/12/23 09:50:20;;;;;;;4.85;3.08;;;;;;;12.60;79.00;98663.03;5112315;28;20051;-62
2020/12/23 09:52:46;;;;;;;4.15;3.20;;;;;;;12.61;79.03;98664.66;5097018;28;20054;-62
2020/12/23 09:55:14;;;;;;;3.95;2.92;;;;;;;12.69;79.17;98664.41;5115020;28;20050;-63
2020/12/23 09:57:40;;;;;;;5.78;3.20;;;;;;;12.71;78.73;98661.56;5097016;28;20044;-63
2020/12/23 10:00:08;;;;;;;4.72;3.10;;;;;;;12.70;78.86;98652.81;5115398;28;20493;-62
2020/12/23 10:02:38;;;;;;;5.55;2.85;;;;;;;12.67;78.67;98641.81;5115581;28;20039;-62
2020/12/23 10:05:05;;;;;;;4.47;2.90;;;;;;;12.66;78.85;98635.69;5114724;28;20039;-61
2020/12/23 10:07:32;;;;;;;4.43;2.63;;;;;;;12.77;78.74;98632.34;5114979;28;20050;-60
2020/12/23 10:09:58;;;;;;;4.72;3.35;;;;;;;12.88;78.41;98631.69;5115236;28;20043;-60
2020/12/23 10:12:26;;;;;;;4.25;3.13;;;;;;;13.03;78.30;98617.34;5115104;28;20063;-61
2020/12/23 10:14:53;;;;;;;3.47;2.72;;;;;;;13.05;77.94;98618.75;5097084;28;20102;-60
2020/12/23 10:17:19;;;;;;;6.07;3.47;;;;;;;13.05;78.16;98616.09;5116065;28;20047;-60
2020/12/23 10:19:46;;;;;;;4.68;3.20;;;;;;;13.03;78.04;98612.88;5115914;28;20039;-60
2020/12/23 10:22:13;;;;;;;3.83;3.00;;;;;;;13.08;78.18;98612.22;5115924;28;20512;-61
2020/12/23 10:24:40;;;;;;;3.17;2.60;;;;;;;13.09;77.61;98605.88;5115546;28;20482;-62
2020/12/23 10:27:07;;;;;;;3.15;2.53;;;;;;;13.16;77.41;98597.88;5115622;28;20092;-61
2020/12/23 10:29:35;;;;;;;4.05;3.03;;;;;;;13.20;77.29;98604.41;5117317;28;20401;-62
2020/12/23 10:32:01;;;;;;;4.05;2.72;;;;;;;13.12;77.25;98608.91;5120915;28;20044;-61
2020/12/23 10:34:28;;;;;;;4.20;3.20;;;;;;;13.14;77.81;98606.03;5119879;28;20051;-61
2020/12/23 10:36:55;;;;;;;3.70;3.08;;;;;;;13.14;77.47;98606.88;5120805;28;20059;-61
2020/12/23 10:39:22;;;;;;;5.15;2.92;;;;;;;13.15;77.48;98597.06;5120157;28;20498;-61
2020/12/23 10:41:52;;;;;;;3.90;2.92;;;;;;;13.27;77.06;98592.75;5119783;28;20043;-61
2020/12/23 10:44:19;;;;;;;5.55;2.97;;;;;;;13.27;77.18;98589.28;5119473;28;20035;-61
2020/12/23 10:46:51;;;;;;;4.28;2.65;;;;;;;13.34;77.49;98582.06;5118753;28;20131;-61
2020/12/23 10:49:18;;;;;;;4.97;2.60;;;;;;;13.34;76.98;98585.50;5119034;28;20058;-61
2020/12/23 10:51:48;;;;;;;2.97;2.72;;;;;;;13.35;77.28;98584.50;5119164;28;20047;-61
2020/12/23 10:54:15;;;;;;;5.05;3.30;;;;;;;13.40;77.09;98580.41;5119139;28;20117;-61
2020/12/23 10:56:41;;;;;;;4.13;3.60;;;;;;;13.46;77.10;98575.00;5102302;28;20100;-62
2020/12/23 10:59:08;;;;;;;4.00;2.85;;;;;;;13.45;76.87;98581.38;5120778;28;20047;-62
2020/12/23 11:01:35;;;;;;;4.00;3.10;;;;;;;13.46;77.12;98567.03;5120550;28;20584;-62
2020/12/23 11:04:03;;;;;;;2.90;2.60;;;;;;;13.48;76.92;98570.31;5120212;28;20040;-62
2020/12/23 11:06:30;;;;;;;3.35;2.97;;;;;;;13.48;76.59;98559.69;5121613;28;20642;-61
2020/12/23 11:08:57;;;;;;;4.95;4.15;;;;;;;13.43;76.63;98562.19;5121082;28;20093;-62
2020/12/23 11:11:24;;;;;;;5.80;3.47;;;;;;;13.43;76.75;98558.69;5120626;28;20055;-61
2020/12/23 11:13:50;;;;;;;5.20;3.17;;;;;;;13.38;76.14;98557.50;5120308;28;20055;-62
2020/12/23 11:16:18;;;;;;;3.33;3.00;;;;;;;13.32;76.34;98558.38;5120677;28;20047;-63
2020/12/23 11:18:46;;;;;;;3.08;2.60;;;;;;;13.30;76.77;98556.97;5120192;28;20086;-63
2020/12/23 11:21:14;;;;;;;3.15;2.33;;;;;;;13.23;76.35;98549.06;5119640;28;20051;-63
2020/12/23 11:23:41;;;;;;;4.07;3.05;;;;;;;13.22;76.87;98543.94;5119235;28;20063;-63
2020/12/23 11:26:15;;;;;;;3.30;2.47;;;;;;;13.27;76.90;98544.97;5116906;28;20136;-63
2020/12/23 11:28:52;;;;;;;4.32;3.08;;;;;;;13.23;76.89;98541.09;5113359;28;20047;-63
2020/12/23 11:31:19;;;;;;;4.65;3.30;;;;;;;13.27;76.53;98531.69;5112312;28;20040;-63
2020/12/23 11:33:45;;;;;;;3.97;3.20;;;;;;;13.29;76.67;98523.50;5113132;28;20039;-63
2020/12/23 11:36:14;;;;;;;3.65;2.90;;;;;;;13.38;76.70;98530.97;5113620;28;20050;-63
2020/12/23 11:38:41;;;;;;;3.05;2.45;;;;;;;13.32;76.53;98525.72;5113278;28;20059;-63